Time;durP1;ratioP1;P1;durP2;ratioP2;P2;SDS_P1;SDS_P2;PMS_P1;PMS_P2;Temp;Humidity;BMP_temperature;BMP_pressure;BME280_temperature;BME280_humidity;BME280_pressure;Samples;Min_cycle;Max_cycle;Signal;HPM_P1;HPM_P2
2022/02/17 00:00:59;;;;;;;;;;;;;;;10.49;75.06;96313.47;4918711;29;19933;-87
2022/02/17 00:03:28;;;;;;;;;;;;;;;10.47;75.34;96296.72;4950666;28;19934;-85
2022/02/17 00:05:57;;;;;;;;;;;;;;;10.52;75.09;96317.41;4931355;29;19966;-85
2022/02/17 00:08:32;;;;;;;;;;;;;;;10.58;74.95;96304.38;4947511;28;20017;-87
2022/02/17 00:11:00;;;;;;;;;;;;;;;10.51;75.43;96315.06;4926466;28;19926;-87
2022/02/17 00:13:31;;;;;;;;;;;;;;;10.55;75.23;96319.44;4953788;28;19926;-87
2022/02/17 00:15:59;;;;;;;;;;;;;;;10.56;75.41;96312.09;4949950;28;20280;-87
2022/02/17 00:18:27;;;;;;;;;;;;;;;10.62;74.85;96310.69;4949773;28;19927;-87
2022/02/17 00:20:56;;;;;;;;;;;;;;;10.70;74.91;96301.56;4935340;29;19934;-86
2022/02/17 00:23:25;;;;;;;;;;;;;;;10.71;74.71;96322.16;4951423;28;20381;-87
2022/02/17 00:25:54;;;;;;;;;;;;;;;10.81;74.49;96324.31;4952369;28;19930;-86
2022/02/17 00:28:22;;;;;;;;;;;;;;;10.79;74.28;96310.31;4950428;28;19934;-86
2022/02/17 00:30:51;;;;;;;;;;;;;;;10.84;74.23;96301.13;4949030;28;19982;-87
2022/02/17 00:33:19;;;;;;;;;;;;;;;10.85;74.10;96289.88;4934850;29;20345;-88
2022/02/17 00:35:47;;;;;;;;;;;;;;;10.95;73.53;96296.72;4953986;28;19962;-87
2022/02/17 00:38:15;;;;;;;;;;;;;;;10.92;74.01;96286.53;4954033;28;19942;-87
2022/02/17 00:40:48;;;;;;;;;;;;;;;10.95;73.85;96283.13;4951830;28;19997;-87
2022/02/17 00:43:17;;;;;;;;;;;;;;;10.95;74.04;96277.69;4949427;28;19934;-85
2022/02/17 00:45:45;;;;;;;;;;;;;;;10.91;74.39;96269.47;4923524;29;19978;-86
2022/02/17 00:48:14;;;;;;;;;;;;;;;10.90;74.50;96256.22;4950380;28;20300;-87
2022/02/17 00:50:44;;;;;;;;;;;;;;;10.95;74.13;96283.13;4948877;28;20527;-86
2022/02/17 00:53:12;;;;;;;;;;;;;;;11.04;73.86;96247.63;4935569;29;20373;-87
2022/02/17 00:55:40;;;;;;;;;;;;;;;10.97;74.01;96254.47;4949972;28;19940;-86
2022/02/17 00:58:08;;;;;;;;;;;;;;;10.99;73.82;96265.00;4949395;28;19931;-87
2022/02/17 01:00:37;;;;;;;;;;;;;;;10.94;74.20;96267.97;4929838;28;20030;-86
2022/02/17 01:03:12;;;;;;;;;;;;;;;10.95;73.96;96262.19;4934514;29;19927;-87
2022/02/17 01:05:40;;;;;;;;;;;;;;;10.91;73.98;96269.47;4951238;28;19966;-86
2022/02/17 01:08:08;;;;;;;;;;;;;;;10.96;73.71;96271.91;4933718;28;19934;-86
2022/02/17 01:10:35;;;;;;;;;;;;;;;10.88;74.29;96270.19;4951365;28;19934;-86
2022/02/17 01:13:03;;;;;;;;;;;;;;;10.93;74.01;96283.50;4934643;28;20469;-87
2022/02/17 01:15:31;;;;;;;;;;;;;;;10.92;74.07;96276.50;4949252;28;19934;-87
2022/02/17 01:18:02;;;;;;;;;;;;;;;10.90;74.22;96267.88;4936222;28;20373;-87
2022/02/17 01:20:33;;;;;;;;;;;;;;;11.00;73.80;96267.34;4949336;28;19926;-87
2022/02/17 01:23:01;;;;;;;;;;;;;;;10.95;74.00;96280.41;4949386;28;19973;-87
2022/02/17 01:25:31;;;;;;;;;;;;;;;11.02;73.71;96275.94;4947986;28;19926;-86
2022/02/17 01:27:59;;;;;;;;;;;;;;;10.99;73.58;96284.78;4933325;29;20290;-86
2022/02/17 01:30:29;;;;;;;;;;;;;;;10.91;73.77;96272.16;4947278;28;19926;-87
2022/02/17 01:32:58;;;;;;;;;;;;;;;11.02;73.42;96270.50;4948883;28;19927;-86
2022/02/17 01:35:28;;;;;;;;;;;;;;;10.98;73.72;96256.06;4932709;29;19926;-86
2022/02/17 01:38:03;;;;;;;;;;;;;;;10.95;74.02;96261.41;4948639;28;19926;-87
2022/02/17 01:40:31;;;;;;;;;;;;;;;10.95;73.99;96248.59;4948852;28;20385;-85
2022/02/17 01:42:59;;;;;;;;;;;;;;;10.92;74.42;96257.47;4934872;28;20017;-87
2022/02/17 01:45:30;;;;;;;;;;;;;;;10.87;74.99;96246.88;4946482;28;19986;-88
2022/02/17 01:47:59;;;;;;;;;;;;;;;10.83;74.72;96235.13;4950684;28;19934;-87
2022/02/17 01:50:40;;;;;;;;;;;;;;;10.82;74.90;96232.78;4932782;28;20385;-87
2022/02/17 01:53:11;;;;;;;;;;;;;;;10.85;74.68;96249.13;4952161;28;19930;-88
2022/02/17 01:55:39;;;;;;;;;;;;;;;10.85;74.58;96254.56;4950370;28;19927;-85
2022/02/17 01:58:07;;;;;;;;;;;;;;;10.85;74.98;96240.22;4931728;29;19926;-88
2022/02/17 02:00:35;;;;;;;;;;;;;;;10.96;74.57;96203.19;4930452;28;20301;-86
2022/02/17 02:03:05;;;;;;;;;;;;;;;10.84;74.44;96184.31;4951571;28;19938;-87
2022/02/17 02:05:54;;;;;;;;;;;;;;;11.00;73.75;96191.25;4932075;29;19933;-86
2022/02/17 02:08:23;;;;;;;;;;;;;;;10.88;73.96;96193.31;4949465;28;19935;-86
2022/02/17 02:10:58;;;;;;;;;;;;;;;10.88;73.99;96210.41;4949403;28;19934;-85
2022/02/17 02:13:27;;;;;;;;;;;;;;;10.81;74.51;96191.22;4949098;28;19926;-86
2022/02/17 02:15:55;;;;;;;;;;;;;;;10.85;74.30;96189.38;4931482;29;19974;-87
2022/02/17 02:18:23;;;;;;;;;;;;;;;10.88;74.08;96169.66;4933835;29;20346;-86
2022/02/17 02:20:54;;;;;;;;;;;;;;;10.85;73.85;96173.06;4948984;28;19927;-85
2022/02/17 02:23:31;;;;;;;;;;;;;;;10.81;73.91;96164.06;4947295;28;19927;-85
2022/02/17 02:26:06;;;;;;;;;;;;;;;10.83;73.81;96147.41;4945398;28;19927;-86
2022/02/17 02:28:35;;;;;;;;;;;;;;;10.95;73.34;96156.22;4946617;28;21062;-88
2022/02/17 02:31:05;;;;;;;;;;;;;;;10.85;73.62;96145.13;4916205;29;19930;-87
2022/02/17 02:33:33;;;;;;;;;;;;;;;10.81;73.52;96127.97;4940585;29;19930;-87
2022/02/17 02:36:07;;;;;;;;;;;;;;;10.82;73.63;96140.41;4954642;28;20297;-86
2022/02/17 02:38:55;;;;;;;;;;;;;;;10.80;73.51;96134.53;4935511;29;19926;-87
2022/02/17 02:41:56;;;;;;;;;;;;;;;10.96;72.89;96135.25;4938944;29;19997;-86
2022/02/17 02:44:25;;;;;;;;;;;;;;;10.88;72.99;96134.34;4934612;29;19940;-86
2022/02/17 02:46:57;;;;;;;;;;;;;;;10.86;73.31;96128.47;4933075;29;20400;-88
2022/02/17 02:49:26;;;;;;;;;;;;;;;10.86;73.17;96133.88;4956299;28;19926;-87
2022/02/17 02:51:56;;;;;;;;;;;;;;;10.85;73.32;96132.31;4942699;29;19937;-86
2022/02/17 02:54:38;;;;;;;;;;;;;;;10.91;73.08;96111.88;4937957;29;20072;-87
2022/02/17 02:57:07;;;;;;;;;;;;;;;11.03;72.80;96121.84;4921844;29;19931;-87
2022/02/17 02:59:36;;;;;;;;;;;;;;;10.90;72.92;96113.03;4937219;29;19977;-87
2022/02/17 03:02:10;;;;;;;;;;;;;;;10.94;73.10;96138.34;4947761;28;20033;-85
2022/02/17 03:04:38;;;;;;;;;;;;;;;11.04;72.76;96125.34;4955356;29;20403;-88
2022/02/17 03:07:15;;;;;;;;;;;;;;;10.98;72.93;96105.81;4935156;29;20376;-85
2022/02/17 03:09:45;;;;;;;;;;;;;;;10.92;72.96;96135.22;4935020;29;19933;-87
2022/02/17 03:12:15;;;;;;;;;;;;;;;10.98;73.24;96157.44;4950626;28;19934;-87
2022/02/17 03:14:45;;;;;;;;;;;;;;;11.02;72.93;96123.78;4951931;28;19927;-87
2022/02/17 03:17:27;;;;;;;;;;;;;;;11.03;73.15;96135.44;4948936;28;19972;-85
2022/02/17 03:19:54;;;;;;;;;;;;;;;11.14;72.25;96133.72;4918093;29;19930;-86
2022/02/17 03:22:26;;;;;;;;;;;;;;;11.11;72.51;96112.66;4934864;29;19926;-84
2022/02/17 03:24:57;;;;;;;;;;;;;;;11.07;72.79;96108.31;4935818;29;19934;-87
2022/02/17 03:27:26;;;;;;;;;;;;;;;11.05;72.82;96119.53;4936163;29;19932;-87
2022/02/17 03:30:09;;;;;;;;;;;;;;;11.07;72.87;96119.97;4949555;28;19934;-86
2022/02/17 03:33:01;;;;;;;;;;;;;;;11.11;72.45;96109.16;4953437;28;20461;-87
2022/02/17 03:35:29;;;;;;;;;;;;;;;11.20;72.52;96109.75;4930632;29;20613;-87
2022/02/17 03:37:59;;;;;;;;;;;;;;;11.08;73.10;96105.25;4933649;29;19934;-87
2022/02/17 03:40:31;;;;;;;;;;;;;;;11.15;72.81;96112.75;4935353;29;19930;-86
2022/02/17 03:43:01;;;;;;;;;;;;;;;11.08;72.80;96116.13;4935512;29;20388;-87
2022/02/17 03:45:29;;;;;;;;;;;;;;;11.17;72.81;96124.03;4933603;28;19927;-86
2022/02/17 03:48:07;;;;;;;;;;;;;;;11.09;73.37;96106.81;4936477;29;20034;-88
2022/02/17 03:50:35;;;;;;;;;;;;;;;11.08;73.48;96112.59;4950035;28;19930;-88
2022/02/17 03:53:12;;;;;;;;;;;;;;;11.14;72.75;96090.22;4929779;29;19930;-88
2022/02/17 03:55:49;;;;;;;;;;;;;;;11.19;72.77;96113.63;4934256;29;20142;-87
2022/02/17 04:00:59;;;;;;;;;;;;;;;11.10;72.82;96105.66;4932442;29;20001;-87
2022/02/17 04:03:27;;;;;;;;;;;;;;;11.12;72.99;96095.22;4935269;29;20022;-85
2022/02/17 04:05:59;;;;;;;;;;;;;;;11.15;72.87;96115.47;4950709;28;19930;-87
2022/02/17 04:08:29;;;;;;;;;;;;;;;11.18;72.69;96112.81;4949749;28;19930;-87
2022/02/17 04:11:02;;;;;;;;;;;;;;;11.15;72.85;96093.72;4948262;28;20383;-88
2022/02/17 04:13:46;;;;;;;;;;;;;;;11.21;72.51;96093.06;4949819;28;19926;-88
2022/02/17 04:16:20;;;;;;;;;;;;;;;11.18;72.66;96104.66;4917061;29;20035;-86
2022/02/17 04:19:04;;;;;;;;;;;;;;;11.17;72.62;96118.59;4950302;28;19926;-86
2022/02/17 04:22:10;;;;;;;;;;;;;;;11.21;72.49;96097.72;4934966;28;19926;-88
2022/02/17 04:24:50;;;;;;;;;;;;;;;11.21;72.79;96108.59;4952185;28;19933;-88
2022/02/17 04:27:22;;;;;;;;;;;;;;;11.20;72.28;96121.41;4946948;28;19926;-86
2022/02/17 04:30:04;;;;;;;;;;;;;;;11.21;72.52;96136.56;4950696;28;19934;-80
2022/02/17 04:32:33;;;;;;;;;;;;;;;11.14;73.03;96131.00;4952431;28;20281;-86
2022/02/17 04:35:01;;;;;;;;;;;;;;;11.16;72.61;96125.19;4935897;28;20014;-87
2022/02/17 04:37:29;;;;;;;;;;;;;;;11.15;72.32;96099.16;4930932;28;20029;-85
2022/02/17 04:40:00;;;;;;;;;;;;;;;11.15;72.50;96120.91;4950276;29;19938;-84
2022/02/17 04:42:33;;;;;;;;;;;;;;;11.21;71.35;96124.91;4951412;28;20408;-86
2022/02/17 04:45:03;;;;;;;;;;;;;;;11.32;70.07;96125.91;4928500;29;19926;-78
2022/02/17 04:47:32;;;;;;;;;;;;;;;11.34;70.41;96144.56;4951699;28;19926;-86
2022/02/17 04:50:00;;;;;;;;;;;;;;;11.35;69.64;96138.00;4932686;29;19931;-87
2022/02/17 04:52:28;;;;;;;;;;;;;;;11.41;68.63;96112.88;4952304;28;20401;-89
2022/02/17 04:54:58;;;;;;;;;;;;;;;11.48;67.83;96121.16;4951794;29;19942;-86
2022/02/17 04:57:26;;;;;;;;;;;;;;;11.48;67.70;96133.97;4948829;28;19972;-87
2022/02/17 04:59:54;;;;;;;;;;;;;;;11.50;67.70;96165.09;4933664;29;19931;-88
2022/02/17 05:02:22;;;;;;;;;;;;;;;11.49;68.51;96146.41;4945376;28;19933;-87
2022/02/17 05:07:49;;;;;;;;;;;;;;;11.19;72.37;96182.34;4947110;28;19930;-85
2022/02/17 05:10:20;;;;;;;;;;;;;;;11.04;74.44;96204.94;4931083;29;19948;-86
2022/02/17 05:12:54;;;;;;;;;;;;;;;10.99;75.07;96195.13;4932921;29;19969;-85
2022/02/17 05:15:23;;;;;;;;;;;;;;;10.85;75.87;96178.50;4926224;28;20379;-85
2022/02/17 05:17:52;;;;;;;;;;;;;;;10.84;75.69;96171.50;4914740;29;20476;-85
2022/02/17 05:20:20;;;;;;;;;;;;;;;10.84;75.01;96182.38;4948184;28;19949;-84
2022/02/17 05:23:07;;;;;;;;;;;;;;;10.80;74.85;96175.28;4945655;28;19989;-86
2022/02/17 05:25:58;;;;;;;;;;;;;;;10.83;74.21;96183.53;4949570;28;19927;-88
2022/02/17 05:28:41;;;;;;;;;;;;;;;10.91;73.17;96217.84;4916837;28;19977;-86
2022/02/17 05:31:29;;;;;;;;;;;;;;;10.93;73.19;96236.53;4946481;28;19933;-84
2022/02/17 05:34:18;;;;;;;;;;;;;;;10.86;73.65;96220.03;4949335;28;19934;-85
2022/02/17 05:37:08;;;;;;;;;;;;;;;10.75;74.50;96211.66;4949287;29;19954;-91
2022/02/17 05:39:57;;;;;;;;;;;;;;;10.73;73.85;96203.88;4929581;28;19927;-87
2022/02/17 05:42:27;;;;;;;;;;;;;;;10.62;73.94;96226.50;4947559;29;19927;-85
2022/02/17 05:44:55;;;;;;;;;;;;;;;10.56;73.03;96225.19;4935767;29;19938;-88
2022/02/17 05:47:26;;;;;;;;;;;;;;;10.60;72.00;96237.72;4946023;28;19933;-85
2022/02/17 05:49:54;;;;;;;;;;;;;;;10.65;71.09;96255.66;4953839;28;19926;-91
2022/02/17 05:52:22;;;;;;;;;;;;;;;10.59;71.73;96251.63;4956575;29;19934;-94
2022/02/17 05:54:51;;;;;;;;;;;;;;;10.55;71.32;96239.91;4948785;28;20456;-93
2022/02/17 05:57:19;;;;;;;;;;;;;;;10.55;70.46;96239.91;4948965;29;19937;-85
2022/02/17 05:59:48;;;;;;;;;;;;;;;10.52;69.81;96284.03;4925701;29;19933;-85
2022/02/17 06:02:16;;;;;;;;;;;;;;;10.56;68.75;96260.50;4943350;28;19935;-89
2022/02/17 06:04:44;;;;;;;;;;;;;;;10.62;66.77;96253.66;4948031;28;19926;-86
2022/02/17 06:07:13;;;;;;;;;;;;;;;10.55;67.00;96277.94;4950465;28;20286;-88
2022/02/17 06:09:43;;;;;;;;;;;;;;;10.51;67.61;96283.25;4945731;28;19927;-90
2022/02/17 06:12:11;;;;;;;;;;;;;;;10.46;66.70;96300.59;4952546;28;19926;-77
2022/02/17 06:14:39;;;;;;;;;;;;;;;10.49;65.73;96280.91;4948330;28;19926;-87
2022/02/17 06:17:08;;;;;;;;;;;;;;;10.46;66.15;96307.94;4949646;29;19926;-84
2022/02/17 06:19:48;;;;;;;;;;;;;;;10.43;65.57;96304.00;4950415;28;19966;-85
2022/02/17 06:22:15;;;;;;;;;;;;;;;10.44;64.69;96321.09;4948994;28;19927;-87
2022/02/17 06:24:43;;;;;;;;;;;;;;;10.41;63.96;96344.28;4951347;28;19926;-87
2022/02/17 06:27:12;;;;;;;;;;;;;;;10.40;63.28;96348.16;4949729;28;19957;-87
2022/02/17 06:29:39;;;;;;;;;;;;;;;10.40;61.64;96397.00;4950088;29;19982;-87
2022/02/17 06:32:09;;;;;;;;;;;;;;;10.44;59.48;96369.97;4946745;28;19962;-87
2022/02/17 06:34:37;;;;;;;;;;;;;;;10.39;61.05;96375.66;4950453;28;19927;-87
2022/02/17 06:37:05;;;;;;;;;;;;;;;10.37;60.65;96392.25;4950787;28;19926;-86
2022/02/17 06:39:33;;;;;;;;;;;;;;;10.30;61.29;96402.16;4950647;28;19937;-87
2022/02/17 06:42:02;;;;;;;;;;;;;;;10.29;60.22;96403.28;4949911;28;19934;-89
2022/02/17 06:44:31;;;;;;;;;;;;;;;10.30;60.97;96427.38;4951296;28;19941;-87
2022/02/17 06:47:03;;;;;;;;;;;;;;;10.32;59.95;96443.31;4947506;29;19926;-89
2022/02/17 06:49:32;;;;;;;;;;;;;;;10.30;59.30;96429.28;4948908;29;20025;-87
2022/02/17 06:52:04;;;;;;;;;;;;;;;10.22;59.36;96433.69;4950463;28;19926;-86
2022/02/17 06:54:34;;;;;;;;;;;;;;;10.17;58.75;96452.94;4949851;28;20395;-88
2022/02/17 06:57:03;;;;;;;;;;;;;;;10.23;57.17;96446.97;4948207;28;20269;-88
2022/02/17 06:59:33;;;;;;;;;;;;;;;10.17;57.27;96447.50;4951668;28;19974;-87
2022/02/17 07:02:01;;;;;;;;;;;;;;;10.17;54.61;96452.94;4943976;28;19982;-86
2022/02/17 07:04:28;;;;;;;;;;;;;;;10.13;53.54;96457.47;4948374;28;20396;-86
2022/02/17 07:06:58;;;;;;;;;;;;;;;10.10;54.16;96490.72;4948519;28;19931;-88
2022/02/17 07:09:26;;;;;;;;;;;;;;;10.08;52.70;96499.22;4952856;29;20309;-88
2022/02/17 07:11:55;;;;;;;;;;;;;;;10.06;52.24;96516.94;4949672;28;19941;-88
2022/02/17 07:14:24;;;;;;;;;;;;;;;10.01;51.12;96498.19;4944879;28;20447;-89
2022/02/17 07:16:57;;;;;;;;;;;;;;;10.03;51.25;96513.00;4939024;28;19934;-86
2022/02/17 07:19:29;;;;;;;;;;;;;;;10.04;50.30;96513.78;4928813;29;19941;-87
2022/02/17 07:21:57;;;;;;;;;;;;;;;10.03;50.18;96528.50;4944927;28;19934;-87
2022/02/17 07:24:26;;;;;;;;;;;;;;;9.92;50.16;96553.38;4946526;28;20041;-88
2022/02/17 07:26:54;;;;;;;;;;;;;;;9.91;48.88;96538.22;4945066;29;19934;-87
2022/02/17 07:29:22;;;;;;;;;;;;;;;9.91;50.45;96554.50;4945736;28;19931;-87
2022/02/17 07:31:52;;;;;;;;;;;;;;;9.85;49.09;96561.28;4941223;28;19961;-88
2022/02/17 07:34:20;;;;;;;;;;;;;;;9.85;47.38;96536.84;4946264;28;20368;-88
2022/02/17 07:36:48;;;;;;;;;;;;;;;9.86;45.98;96581.88;4945280;28;19930;-87
2022/02/17 07:39:16;;;;;;;;;;;;;;;9.82;46.14;96586.38;4945458;28;19934;-86
2022/02/17 07:41:47;;;;;;;;;;;;;;;9.84;46.50;96569.75;4946272;29;19930;-87
2022/02/17 07:44:14;;;;;;;;;;;;;;;9.79;46.48;96567.25;4944104;28;19942;-87
2022/02/17 07:46:42;;;;;;;;;;;;;;;9.77;46.09;96569.53;4941704;28;19934;-88
2022/02/17 07:49:10;;;;;;;;;;;;;;;9.81;47.51;96576.66;4930825;29;19930;-86
2022/02/17 07:51:39;;;;;;;;;;;;;;;9.71;47.36;96594.16;4945253;28;19933;-86
2022/02/17 07:54:07;;;;;;;;;;;;;;;9.66;47.69;96585.47;4945694;28;19926;-87
2022/02/17 07:56:35;;;;;;;;;;;;;;;9.62;48.35;96579.13;4931385;29;19930;-87
2022/02/17 07:59:06;;;;;;;;;;;;;;;9.70;48.72;96586.38;4943229;28;20033;-86
2022/02/17 08:01:34;;;;;;;;;;;;;;;9.72;48.87;96594.94;4956134;29;19930;-86
2022/02/17 08:04:02;;;;;;;;;;;;;;;9.83;48.84;96603.44;4944920;28;19935;-87
2022/02/17 08:06:54;;;;;;;;;;;;;;;9.86;48.06;96606.28;4943167;28;19937;-87
2022/02/17 08:09:22;;;;;;;;;;;;;;;9.83;48.58;96606.16;4942523;28;19927;-80
2022/02/17 08:11:50;;;;;;;;;;;;;;;9.82;48.81;96605.38;4940996;28;19938;-82
2022/02/17 08:14:22;;;;;;;;;;;;;;;9.80;48.98;96621.19;4942252;28;19930;-78
2022/02/17 08:16:50;;;;;;;;;;;;;;;9.87;49.14;96601.63;4938261;29;19938;-82
2022/02/17 08:19:20;;;;;;;;;;;;;;;9.93;48.41;96617.34;4942741;28;19939;-82
2022/02/17 08:21:49;;;;;;;;;;;;;;;9.91;49.07;96632.41;4943785;28;21156;-82
2022/02/17 08:24:17;;;;;;;;;;;;;;;9.97;47.64;96656.25;4947393;28;20382;-79
2022/02/17 08:26:45;;;;;;;;;;;;;;;9.92;49.16;96632.03;4943986;28;19961;-82
2022/02/17 08:29:13;;;;;;;;;;;;;;;9.96;48.40;96648.44;4933839;28;19938;-81
2022/02/17 08:31:43;;;;;;;;;;;;;;;10.04;46.66;96654.88;4921329;28;19935;-82
2022/02/17 08:34:11;;;;;;;;;;;;;;;9.96;46.17;96624.81;4925586;29;19946;-81
2022/02/17 08:36:39;;;;;;;;;;;;;;;9.88;47.03;96643.91;4926934;29;20028;-80
2022/02/17 08:39:07;;;;;;;;;;;;;;;9.81;47.57;96641.75;4926773;28;19934;-79
2022/02/17 08:41:41;;;;;;;;;;;;;;;9.79;46.96;96621.50;4945045;28;19934;-81
2022/02/17 08:44:09;;;;;;;;;;;;;;;9.73;48.25;96623.66;4926159;29;19934;-80
2022/02/17 08:46:38;;;;;;;;;;;;;;;9.75;49.05;96626.03;4940259;28;19926;-81
2022/02/17 08:49:07;;;;;;;;;;;;;;;9.87;49.50;96645.03;4927012;29;19932;-82
2022/02/17 08:51:39;;;;;;;;;;;;;;;9.84;49.58;96634.84;4941574;28;19931;-84
2022/02/17 08:54:08;;;;;;;;;;;;;;;9.74;49.94;96625.22;4927602;29;19977;-81
2022/02/17 08:56:35;;;;;;;;;;;;;;;9.76;50.10;96641.19;4928166;29;20289;-82
2022/02/17 08:59:03;;;;;;;;;;;;;;;9.81;48.42;96620.06;4953150;28;19933;-84
2022/02/17 09:01:31;;;;;;;;;;;;;;;9.88;48.99;96639.28;4932540;28;19931;-78
2022/02/17 09:04:02;;;;;;;;;;;;;;;9.82;49.32;96637.91;4931221;29;19927;-80
2022/02/17 09:06:55;;;;;;;;;;;;;;;9.95;49.13;96649.56;4950152;28;19980;-79
2022/02/17 09:09:23;;;;;;;;;;;;;;;9.91;49.42;96657.59;4949111;28;20424;-81
2022/02/17 09:11:51;;;;;;;;;;;;;;;10.01;49.60;96666.41;4927610;29;20104;-80
2022/02/17 09:14:19;;;;;;;;;;;;;;;10.06;49.29;96668.91;4951118;28;19953;-80
2022/02/17 09:16:47;;;;;;;;;;;;;;;9.82;49.72;96689.44;4933381;28;19930;-83
2022/02/17 09:19:15;;;;;;;;;;;;;;;9.77;50.41;96695.09;4950641;28;19927;-81
2022/02/17 09:21:43;;;;;;;;;;;;;;;9.68;51.76;96687.03;4952470;29;19933;-83
2022/02/17 09:24:13;;;;;;;;;;;;;;;9.59;54.64;96682.84;4951228;28;19981;-82
2022/02/17 09:26:40;;;;;;;;;;;;;;;9.36;54.62;96718.44;4934908;29;20009;-79
2022/02/17 09:29:14;;;;;;;;;;;;;;;9.21;55.48;96689.22;4951332;28;20386;-83
2022/02/17 09:32:02;;;;;;;;;;;;;;;8.91;56.82;96729.16;4947698;29;19926;-84
2022/02/17 09:34:32;;;;;;;;;;;;;;;8.27;60.36;96704.97;4951136;28;19930;-81
2022/02/17 09:37:00;;;;;;;;;;;;;;;8.07;62.39;96747.03;4934317;29;19935;-81
2022/02/17 09:39:29;;;;;;;;;;;;;;;8.04;60.62;96744.97;4932114;29;19930;-82
2022/02/17 09:41:57;;;;;;;;;;;;;;;7.90;60.68;96814.72;4932617;29;19926;-80
2022/02/17 09:44:25;;;;;;;;;;;;;;;7.70;61.87;96797.22;4933787;28;19930;-81
2022/02/17 09:47:07;;;;;;;;;;;;;;;7.73;62.46;96773.06;4951278;29;19961;-88
2022/02/17 09:49:35;;;;;;;;;;;;;;;7.72;61.95;96784.97;4928967;29;19926;-92
2022/02/17 09:52:13;;;;;;;;;;;;;;;7.69;62.60;96755.09;4930806;29;19937;-91
2022/02/17 09:54:43;;;;;;;;;;;;;;;7.65;63.22;96770.34;4955890;29;20381;-83
2022/02/17 09:57:13;;;;;;;;;;;;;;;7.78;62.55;96764.00;4917524;29;19926;-82
2022/02/17 09:59:44;;;;;;;;;;;;;;;7.87;62.34;96770.16;4920063;29;20206;-80
2022/02/17 10:02:16;;;;;;;;;;;;;;;7.86;63.70;96788.28;4933691;28;19935;-80
2022/02/17 10:04:51;;;;;;;;;;;;;;;8.14;63.19;96791.41;4918853;28;19935;-82
2022/02/17 10:07:44;;;;;;;;;;;;;;;8.36;62.79;96782.31;4933422;29;20341;-82
2022/02/17 10:10:15;;;;;;;;;;;;;;;8.51;62.82;96789.09;4932657;29;20017;-79
2022/02/17 10:12:51;;;;;;;;;;;;;;;8.65;62.46;96797.00;4926395;29;20345;-82
2022/02/17 10:15:25;;;;;;;;;;;;;;;8.82;61.46;96793.41;4927397;29;20018;-81
2022/02/17 10:18:03;;;;;;;;;;;;;;;9.13;60.94;96822.88;4948322;29;19975;-81
2022/02/17 10:20:51;;;;;;;;;;;;;;;9.35;57.66;96792.75;4945933;29;19930;-81
2022/02/17 10:23:18;;;;;;;;;;;;;;;9.64;57.38;96791.91;4930987;29;19926;-81
2022/02/17 10:26:02;;;;;;;;;;;;;;;9.66;57.65;96794.28;4948385;29;19926;-81
2022/02/17 10:28:33;;;;;;;;;;;;;;;9.85;56.72;96810.84;4941141;28;19938;-81
2022/02/17 10:31:02;;;;;;;;;;;;;;;9.87;54.70;96791.53;4945905;28;19934;-78
2022/02/17 10:33:44;;;;;;;;;;;;;;;10.03;54.02;96838.63;4916697;28;19934;-81
2022/02/17 10:36:13;;;;;;;;;;;;;;;10.02;52.53;96803.69;4931583;29;20059;-82
2022/02/17 10:38:46;;;;;;;;;;;;;;;9.96;52.34;96816.66;4908270;28;19926;-82
2022/02/17 10:41:15;;;;;;;;;;;;;;;9.85;50.95;96837.16;4928627;28;19927;-80
2022/02/17 10:43:43;;;;;;;;;;;;;;;9.67;51.49;96833.81;4917496;28;19938;-78
2022/02/17 10:46:13;;;;;;;;;;;;;;;9.47;52.25;96834.59;4946409;28;20393;-80
2022/02/17 10:48:46;;;;;;;;;;;;;;;9.50;52.59;96842.09;4948917;28;20381;-90
2022/02/17 10:51:15;;;;;;;;;;;;;;;9.77;52.58;96848.91;4917652;29;20419;-80
2022/02/17 10:53:58;;;;;;;;;;;;;;;9.86;52.25;96850.41;4918944;28;19960;-80
2022/02/17 10:56:35;;;;;;;;;;;;;;;9.86;52.60;96849.63;4954617;28;19933;-80
2022/02/17 11:00:00;;;;;;;;;;;;;;;9.92;53.53;96843.66;4936137;28;19927;-79
2022/02/17 11:01:58;;;;;;;;;;;;;;;9.93;52.52;96850.66;4935688;28;19934;-82
2022/02/17 11:04:26;;;;;;;;;;;;;;;9.75;52.02;96857.38;4937908;28;19977;-83
2022/02/17 11:06:55;;;;;;;;;;;;;;;9.75;52.10;96832.97;4937191;29;20052;-77
2022/02/17 11:09:23;;;;;;;;;;;;;;;9.89;51.53;96846.22;4950786;28;19941;-80
2022/02/17 11:11:52;;;;;;;;;;;;;;;9.87;51.41;96843.06;4933117;28;19930;-80
2022/02/17 11:14:35;;;;;;;;;;;;;;;9.95;51.26;96845.69;4934168;29;19927;-80
2022/02/17 11:17:03;;;;;;;;;;;;;;;9.87;51.55;96878.34;4933211;28;19930;-81
2022/02/17 11:19:50;;;;;;;;;;;;;;;9.89;49.90;96866.00;4914952;29;19927;-79
2022/02/17 11:22:20;;;;;;;;;;;;;;;9.86;50.45;96877.53;4950213;28;19926;-82
2022/02/17 11:24:51;;;;;;;;;;;;;;;9.62;51.32;96867.34;4954356;28;20298;-80
2022/02/17 11:27:20;;;;;;;;;;;;;;;9.13;56.68;96904.16;4934045;29;19935;-79
2022/02/17 11:29:49;;;;;;;;;;;;;;;8.84;59.95;96907.63;4949242;28;19926;-80
2022/02/17 11:32:20;;;;;;;;;;;;;;;8.50;61.30;96882.25;4917190;29;19926;-84
2022/02/17 11:34:50;;;;;;;;;;;;;;;8.58;61.17;96918.56;4921548;28;19930;-80
2022/02/17 11:37:34;;;;;;;;;;;;;;;8.16;62.47;96923.66;4937965;28;19930;-80
2022/02/17 11:40:03;;;;;;;;;;;;;;;8.10;63.34;96922.25;4950141;28;20393;-82
2022/02/17 11:42:36;;;;;;;;;;;;;;;8.10;64.21;96906.00;4951767;28;19932;-82
2022/02/17 11:45:07;;;;;;;;;;;;;;;7.88;64.88;96924.00;4918216;29;19958;-80
2022/02/17 11:47:55;;;;;;;;;;;;;;;8.00;64.20;96909.84;4930097;28;19974;-82
2022/02/17 11:50:29;;;;;;;;;;;;;;;8.00;64.16;96917.16;4917397;29;19926;-79
2022/02/17 11:53:20;;;;;;;;;;;;;;;8.18;62.65;96916.00;4946686;28;19942;-83
2022/02/17 11:55:51;;;;;;;;;;;;;;;8.23;61.81;96915.06;4919543;29;20377;-84
2022/02/17 11:58:38;;;;;;;;;;;;;;;8.22;60.64;96948.66;4953142;28;19938;-83
2022/02/17 12:01:20;;;;;;;;;;;;;;;8.12;60.68;96955.16;4932665;29;19933;-82
2022/02/17 12:04:08;;;;;;;;;;;;;;;8.31;60.01;96968.38;4946903;28;20416;-78
2022/02/17 12:07:03;;;;;;;;;;;;;;;8.25;61.38;96983.16;4942462;28;19996;-85
2022/02/17 12:09:37;;;;;;;;;;;;;;;8.18;62.10;96959.31;4914945;29;19966;-80
2022/02/17 12:12:46;;;;;;;;;;;;;;;8.20;62.50;96953.56;4924385;29;19927;-81
2022/02/17 12:15:15;;;;;;;;;;;;;;;8.35;62.48;96967.41;4924623;29;19941;-82
2022/02/17 12:17:44;;;;;;;;;;;;;;;8.28;61.85;96950.88;4916871;29;19936;-81
2022/02/17 12:20:13;;;;;;;;;;;;;;;8.22;61.68;96967.59;4949394;28;19926;-81
2022/02/17 12:22:52;;;;;;;;;;;;;;;8.25;62.28;96929.84;4948945;28;19966;-80
2022/02/17 12:25:21;;;;;;;;;;;;;;;8.51;61.91;96926.34;4931161;29;19954;-80
2022/02/17 12:27:51;;;;;;;;;;;;;;;8.47;61.21;96941.63;4916135;29;19930;-80
2022/02/17 12:30:23;;;;;;;;;;;;;;;8.61;61.10;96931.41;4914145;29;19942;-81
2022/02/17 12:33:07;;;;;;;;;;;;;;;8.53;59.92;96934.97;4931682;28;19926;-81
2022/02/17 12:35:35;;;;;;;;;;;;;;;8.61;60.50;96945.75;4913186;29;19927;-82
2022/02/17 12:38:07;;;;;;;;;;;;;;;8.64;59.28;96960.56;4930599;29;20396;-81
2022/02/17 12:40:35;;;;;;;;;;;;;;;8.63;59.69;96957.06;4927415;29;20011;-80
2022/02/17 12:43:03;;;;;;;;;;;;;;;8.85;59.41;96956.06;4948838;28;19934;-81
2022/02/17 12:45:39;;;;;;;;;;;;;;;8.73;58.59;96977.56;4930716;29;19927;-79
2022/02/17 12:48:07;;;;;;;;;;;;;;;8.71;59.70;96990.66;4918766;29;20373;-83
2022/02/17 12:50:52;;;;;;;;;;;;;;;8.47;60.84;96996.59;4951937;28;20405;-79
2022/02/17 12:53:45;;;;;;;;;;;;;;;8.30;61.76;97018.19;4953221;29;19934;-81
2022/02/17 12:56:21;;;;;;;;;;;;;;;7.99;61.43;97002.09;4933814;29;19926;-80
2022/02/17 12:58:51;;;;;;;;;;;;;;;7.88;61.76;97009.72;4933523;29;19977;-82
2022/02/17 13:01:23;;;;;;;;;;;;;;;7.80;61.42;97022.13;4931626;29;19927;-82
2022/02/17 13:03:51;;;;;;;;;;;;;;;7.65;61.94;97027.94;4915569;28;20013;-87
2022/02/17 13:06:26;;;;;;;;;;;;;;;7.68;61.75;97038.16;4938804;28;19957;-89
2022/02/17 13:09:12;;;;;;;;;;;;;;;7.81;62.21;97028.31;4962645;29;19930;-81
2022/02/17 13:11:47;;;;;;;;;;;;;;;7.80;62.17;97015.91;4913362;29;19927;-81
2022/02/17 13:14:15;;;;;;;;;;;;;;;8.01;62.30;96984.44;4917494;29;19926;-81
2022/02/17 13:16:44;;;;;;;;;;;;;;;8.03;61.73;96992.22;4930951;29;19949;-83
2022/02/17 13:19:39;;;;;;;;;;;;;;;8.27;60.55;97002.59;4951440;28;19926;-82
2022/02/17 13:22:24;;;;;;;;;;;;;;;8.12;60.64;97001.16;4931403;28;20449;-82